Pays
Station

 

Conditions  météo  pour  Batesville Automatic Weather Observing/Reporting System  -  Etats-Unis    Etats-Unis

  
0 °C
    
 
 

METAR pour Batesville Automatic Weather Observing/Reporting System :

KBVX 142356Z AUTO VRB04KT 9SM UP OVC055 00/M07 A3032 RMK AO2 UPB04E09B35SNB09E35B44E54 SLP273 P0000 60000 T00001067 10006 21017 58003 FZRANO

 

Voici le bulletin pour Batesville Automatic Weather Observing/Reporting System - Etats-Unis.
 
Le bulletin a été fait il y a 19 minutes, à 23:56 UTC .
Le vent soufflait à la vitesse de 2.1 mètres par seconde de direction variable.
 
La température était de 0 °C, avec un point de rosée à -7 °C.
La température ressentie était de -3 °C.
 
La pression atmosphérique était de 1027 hPa.
Le ciel était nuageux à partir d'une hauteur de 1676 mètres
 
La visibilité globale était de 14.5 kilomètres.
 
Actuellement moderé(e) inconnu.

 
 
 

Pays :   A   B   C   D   E   F   G   H   I   J   K   L   M   N   O   P   Q   R   S   T   U   V   W   Y   Z

 

Partenaires :  Info Météo avec Met'info
Météo Marine avec MeteoMarine.net
Infos Site  |  Infos Légales  |  Crédits  |  Confidentialité
Contactez-nous  |  Ajouter aux favoris
© 2013-2018 METAR - Tous droits réservés